createdAt,value
2023-03-01T00:01:49.815Z,65.06
2023-03-01T00:04:18.247Z,65.13
2023-03-01T00:06:44.993Z,64.99
2023-03-01T00:09:13.747Z,65.34
2023-03-01T00:11:40.149Z,65.92
2023-03-01T00:14:06.580Z,65.57
2023-03-01T00:16:33.412Z,65.72
2023-03-01T00:18:59.966Z,65.66
2023-03-01T00:21:26.387Z,65.13
2023-03-01T00:23:52.813Z,65.13
2023-03-01T00:26:19.272Z,65.24
2023-03-01T00:28:45.674Z,64.75
2023-03-01T00:31:15.312Z,64.64
2023-03-01T00:33:41.702Z,64.78
2023-03-01T00:36:08.132Z,64.74
2023-03-01T00:38:35.019Z,64.64
2023-03-01T00:41:01.422Z,64.86
2023-03-01T00:43:28.190Z,64.96
2023-03-01T00:45:57.090Z,65.44
2023-03-01T00:48:25.978Z,64.97
2023-03-01T00:50:52.362Z,65.73
2023-03-01T00:53:18.755Z,66.04
2023-03-01T00:55:45.162Z,65.86
2023-03-01T00:58:11.861Z,65.98
2023-03-01T01:00:40.254Z,65.40
2023-03-01T01:03:06.732Z,65.32
2023-03-01T01:05:33.441Z,65.03
2023-03-01T01:07:59.853Z,65.40
2023-03-01T01:10:27.063Z,66.25
2023-03-01T01:12:55.072Z,66.28
2023-03-01T01:15:21.510Z,65.91
2023-03-01T01:17:53.291Z,65.71
2023-03-01T01:20:19.681Z,66.01
2023-03-01T01:22:48.342Z,66.11
2023-03-01T01:25:14.959Z,65.60
2023-03-01T01:27:43.525Z,65.80
2023-03-01T01:30:12.870Z,65.86
2023-03-01T01:32:39.427Z,65.98
2023-03-01T01:35:05.929Z,66.17
2023-03-01T01:37:34.596Z,66.25
2023-03-01T01:40:01.461Z,66.14
2023-03-01T01:42:27.916Z,65.74
2023-03-01T01:44:54.416Z,66.62
2023-03-01T01:47:21.022Z,66.41
2023-03-01T01:49:47.639Z,66.52
2023-03-01T01:52:14.024Z,66.14
2023-03-01T01:54:40.652Z,66.50
2023-03-01T01:57:07.089Z,66.77
2023-03-01T01:59:33.655Z,67.13
2023-03-01T02:02:00.619Z,67.13
2023-03-01T02:04:28.831Z,66.93
2023-03-01T02:06:55.335Z,66.72
2023-03-01T02:09:21.854Z,66.69
2023-03-01T02:11:50.145Z,66.08
2023-03-01T02:14:16.671Z,66.05
2023-03-01T02:16:43.056Z,66.38
2023-03-01T02:19:12.199Z,66.57
2023-03-01T02:21:38.709Z,66.45
2023-03-01T02:24:07.350Z,66.39
2023-03-01T02:26:36.438Z,66.45
2023-03-01T02:29:10.114Z,66.53
2023-03-01T02:31:36.504Z,66.55
2023-03-01T02:34:02.892Z,66.18
2023-03-01T02:36:31.259Z,67.05
2023-03-01T02:39:00.019Z,66.93
2023-03-01T02:41:28.742Z,67.38
2023-03-01T02:43:55.366Z,66.90
2023-03-01T02:46:24.126Z,67.23
2023-03-01T02:48:50.522Z,68.27
2023-03-01T02:51:16.952Z,68.15
2023-03-01T02:53:43.459Z,67.72
2023-03-01T02:56:10.334Z,68.11
2023-03-01T02:58:37.089Z,68.07
2023-03-01T03:01:03.547Z,68.42
2023-03-01T03:03:30.050Z,68.34
2023-03-01T03:05:56.470Z,68.76
2023-03-01T03:08:22.893Z,68.42
2023-03-01T03:10:49.321Z,69.34
2023-03-01T03:13:15.944Z,68.50
2023-03-01T03:15:42.731Z,68.59
2023-03-01T03:18:09.150Z,68.71
2023-03-01T03:20:35.542Z,69.26
2023-03-01T03:23:04.496Z,69.35
2023-03-01T03:25:30.967Z,69.38
2023-03-01T03:27:57.596Z,69.21
2023-03-01T03:30:28.655Z,69.19
2023-03-01T03:32:55.276Z,68.41
2023-03-01T03:35:21.875Z,68.17
2023-03-01T03:37:48.268Z,68.63
2023-03-01T03:40:14.835Z,68.70
2023-03-01T03:42:41.724Z,68.90
2023-03-01T03:45:08.430Z,68.81
2023-03-01T03:47:35.144Z,68.86
2023-03-01T03:50:03.980Z,69.04
2023-03-01T03:52:30.782Z,68.52
2023-03-01T03:54:57.144Z,68.64
2023-03-01T03:57:23.881Z,68.39
2023-03-01T03:59:58.393Z,68.09
2023-03-01T04:02:25.098Z,68.25
2023-03-01T04:04:58.937Z,68.00
2023-03-01T04:07:27.674Z,67.75
2023-03-01T04:09:55.113Z,67.94
2023-03-01T04:12:21.923Z,67.91
2023-03-01T04:14:50.972Z,67.57
2023-03-01T04:17:17.500Z,67.82
2023-03-01T04:19:44.295Z,67.88
2023-03-01T04:22:11.671Z,67.55
2023-03-01T04:24:38.038Z,67.79
2023-03-01T04:27:06.894Z,68.19
2023-03-01T04:29:33.850Z,68.34
2023-03-01T04:32:01.286Z,68.41
2023-03-01T04:34:27.773Z,68.95
2023-03-01T04:36:54.789Z,69.08
2023-03-01T04:39:22.631Z,68.99
2023-03-01T04:41:49.028Z,69.40
2023-03-01T04:44:15.383Z,68.95
2023-03-01T04:46:44.122Z,68.89
2023-03-01T04:49:12.777Z,68.94
2023-03-01T04:51:39.161Z,68.86
2023-03-01T04:54:06.324Z,68.23
2023-03-01T04:56:33.029Z,68.08
2023-03-01T04:58:59.692Z,68.32
2023-03-01T05:01:26.542Z,69.19
2023-03-01T05:03:54.108Z,68.87
2023-03-01T05:06:20.531Z,68.67
2023-03-01T05:08:47.267Z,69.49
2023-03-01T05:11:13.765Z,69.49
2023-03-01T05:13:40.247Z,70.12
2023-03-01T05:16:07.186Z,69.96
2023-03-01T05:18:34.039Z,69.48
2023-03-01T05:21:00.409Z,70.29
2023-03-01T05:23:28.245Z,70.21
2023-03-01T05:25:57.154Z,70.73
2023-03-01T05:28:23.882Z,70.38
2023-03-01T05:30:50.339Z,69.64
2023-03-01T05:33:16.971Z,70.14
2023-03-01T05:35:43.757Z,69.81
2023-03-01T05:38:10.393Z,69.87
2023-03-01T05:40:44.066Z,69.74
2023-03-01T05:43:14.513Z,69.38
2023-03-01T05:45:40.913Z,69.16
2023-03-01T05:48:08.301Z,69.00
2023-03-01T05:50:34.840Z,69.34
2023-03-01T05:53:01.226Z,69.19
2023-03-01T05:55:29.258Z,69.16
2023-03-01T05:57:58.241Z,69.30
2023-03-01T06:00:25.174Z,69.09
2023-03-01T06:02:56.775Z,72.96
2023-03-01T06:05:23.565Z,70.03
2023-03-01T06:07:50.093Z,69.43
2023-03-01T06:10:16.834Z,68.95
2023-03-01T06:12:45.588Z,68.40
2023-03-01T06:15:14.227Z,68.05
2023-03-01T06:17:43.173Z,68.25
2023-03-01T06:20:09.523Z,68.08
2023-03-01T06:22:36.975Z,68.26
2023-03-01T06:25:03.992Z,68.55
2023-03-01T06:27:30.487Z,68.75
2023-03-01T06:29:57.770Z,69.25
2023-03-01T06:32:27.486Z,68.81
2023-03-01T06:34:54.233Z,69.00
2023-03-01T06:37:21.194Z,68.78
2023-03-01T06:39:47.560Z,68.15
2023-03-01T06:42:14.021Z,67.68
2023-03-01T06:44:40.420Z,68.40
2023-03-01T06:47:06.754Z,68.25
2023-03-01T06:49:36.347Z,68.11
2023-03-01T06:52:05.022Z,68.31
2023-03-01T06:54:31.359Z,67.49
2023-03-01T06:56:57.729Z,67.42
2023-03-01T06:59:26.464Z,68.43
2023-03-01T07:01:52.846Z,68.85
2023-03-01T07:04:19.256Z,68.31
2023-03-01T07:06:45.754Z,67.92
2023-03-01T07:09:12.151Z,67.49
2023-03-01T07:11:38.779Z,67.32
2023-03-01T07:14:07.554Z,66.92
2023-03-01T07:16:34.725Z,66.28
2023-03-01T07:19:03.097Z,66.46
2023-03-01T07:21:29.485Z,66.93
2023-03-01T07:23:58.451Z,66.52
2023-03-01T07:26:26.948Z,66.39
2023-03-01T07:28:53.707Z,65.77
2023-03-01T07:31:20.375Z,65.84
2023-03-01T07:33:47.100Z,65.87
2023-03-01T07:36:13.616Z,65.49
2023-03-01T07:38:40.998Z,65.54
2023-03-01T07:41:07.711Z,65.51
2023-03-01T07:43:35.407Z,66.59
2023-03-01T07:46:01.776Z,66.36
2023-03-01T07:48:28.388Z,66.76
2023-03-01T07:50:55.946Z,66.49
2023-03-01T07:53:22.605Z,66.41
2023-03-01T07:55:51.310Z,67.05
2023-03-01T07:58:17.699Z,66.85
2023-03-01T08:00:44.280Z,67.48
2023-03-01T08:03:10.797Z,66.68
2023-03-01T08:05:37.500Z,66.16
2023-03-01T08:08:04.100Z,66.33
2023-03-01T08:10:31.121Z,67.23
2023-03-01T08:12:57.483Z,67.35
2023-03-01T08:15:23.869Z,67.58
2023-03-01T08:17:50.439Z,67.45
2023-03-01T08:20:19.849Z,67.40
2023-03-01T08:22:48.091Z,67.02
2023-03-01T08:25:16.157Z,66.08
2023-03-01T08:27:42.572Z,65.91
2023-03-01T08:30:09.022Z,66.22
2023-03-01T08:32:35.378Z,65.98
2023-03-01T08:35:01.824Z,66.69
2023-03-01T08:37:29.190Z,66.31
2023-03-01T08:39:55.617Z,66.43
2023-03-01T08:42:25.302Z,65.68
2023-03-01T08:44:54.197Z,66.37
2023-03-01T08:47:20.807Z,65.31
2023-03-01T08:49:49.588Z,65.52
2023-03-01T08:52:15.950Z,65.79
2023-03-01T08:54:43.571Z,65.23
2023-03-01T08:57:09.924Z,65.18
2023-03-01T08:59:36.362Z,65.18
2023-03-01T09:02:02.887Z,65.09
2023-03-01T09:04:29.352Z,65.10
2023-03-01T09:06:57.235Z,64.50
2023-03-01T09:09:25.202Z,64.21
2023-03-01T09:11:51.825Z,63.80
2023-03-01T09:14:25.970Z,63.88
2023-03-01T09:16:52.380Z,64.23
2023-03-01T09:19:18.978Z,64.53
2023-03-01T09:21:45.366Z,64.81
2023-03-01T09:24:12.011Z,64.56
2023-03-01T09:26:38.669Z,64.50
2023-03-01T09:29:08.106Z,64.25
2023-03-01T09:31:34.941Z,64.59
2023-03-01T09:34:01.433Z,64.52
2023-03-01T09:36:30.370Z,64.16
2023-03-01T09:38:56.887Z,64.64
2023-03-01T09:41:23.399Z,64.39
2023-03-01T09:43:56.238Z,65.14
2023-03-01T09:46:23.154Z,65.61
2023-03-01T09:48:49.934Z,66.44
2023-03-01T09:51:16.425Z,66.51
2023-03-01T09:53:43.164Z,65.82
2023-03-01T09:56:09.536Z,65.31
2023-03-01T09:58:36.197Z,64.71
2023-03-01T10:01:02.581Z,64.46
2023-03-01T10:03:29.017Z,63.29
2023-03-01T10:05:57.790Z,64.47
2023-03-01T10:08:24.622Z,64.65
2023-03-01T10:10:53.488Z,63.77
2023-03-01T10:13:21.205Z,63.32
2023-03-01T10:15:47.724Z,63.25
2023-03-01T10:18:15.101Z,62.89
2023-03-01T10:20:41.508Z,64.06
2023-03-01T10:23:07.905Z,64.44
2023-03-01T10:25:35.474Z,64.50
2023-03-01T10:28:02.255Z,63.78
2023-03-01T10:30:28.814Z,64.12
2023-03-01T10:32:55.751Z,64.88
2023-03-01T10:35:22.649Z,64.49
2023-03-01T10:37:49.286Z,64.85
2023-03-01T10:40:15.683Z,64.52
2023-03-01T10:42:42.590Z,63.73
2023-03-01T10:45:09.343Z,63.54
2023-03-01T10:47:35.838Z,62.58
2023-03-01T10:50:02.612Z,62.45
2023-03-01T10:52:29.229Z,62.02
2023-03-01T10:54:55.865Z,60.62
2023-03-01T10:57:22.662Z,61.35
2023-03-01T10:59:49.110Z,62.47
2023-03-01T11:02:24.482Z,62.25
2023-03-01T11:04:51.611Z,61.38
2023-03-01T11:07:21.113Z,61.82
2023-03-01T11:09:53.028Z,61.77
2023-03-01T11:12:19.833Z,61.56
2023-03-01T11:14:48.868Z,60.90
2023-03-01T11:17:15.248Z,60.61
2023-03-01T11:19:45.228Z,60.45
2023-03-01T11:22:19.064Z,61.04
2023-03-01T11:24:46.137Z,61.59
2023-03-01T11:27:13.561Z,61.28
2023-03-01T11:29:48.375Z,61.52
2023-03-01T11:32:18.066Z,61.26
2023-03-01T11:34:44.958Z,61.18
2023-03-01T11:37:11.306Z,60.83
2023-03-01T11:39:37.706Z,60.52
2023-03-01T11:42:18.081Z,60.76
2023-03-01T11:44:45.899Z,60.53
2023-03-01T11:47:12.722Z,59.90
2023-03-01T11:49:39.195Z,58.83
2023-03-01T11:52:05.582Z,57.86
2023-03-01T11:54:31.999Z,57.75
2023-03-01T11:56:58.713Z,57.39
2023-03-01T11:59:25.145Z,57.72
2023-03-01T12:04:31.812Z,58.44
2023-03-01T12:06:58.471Z,59.72
2023-03-01T12:09:24.939Z,60.50
2023-03-01T12:11:51.636Z,60.25
2023-03-01T12:14:18.132Z,60.59
2023-03-01T12:16:44.596Z,61.57
2023-03-01T12:19:11.003Z,60.49
2023-03-01T12:21:37.728Z,61.53
2023-03-01T12:24:05.422Z,60.28
2023-03-01T12:26:31.777Z,59.81
2023-03-01T12:29:00.350Z,59.38
2023-03-01T12:31:34.094Z,58.84
2023-03-01T12:34:00.810Z,58.94
2023-03-01T12:36:27.173Z,57.90
2023-03-01T12:38:53.615Z,57.41
2023-03-01T12:41:20.092Z,56.50
2023-03-01T12:43:46.933Z,56.35
2023-03-01T12:46:13.564Z,55.71
2023-03-01T12:48:41.085Z,56.37
2023-03-01T12:51:07.475Z,55.86
2023-03-01T12:53:33.879Z,55.53
2023-03-01T12:56:00.396Z,55.43
2023-03-01T12:58:48.613Z,57.19
2023-03-01T13:01:17.783Z,57.69
2023-03-01T13:03:44.241Z,58.34
2023-03-01T13:06:10.854Z,58.07
2023-03-01T13:08:40.276Z,57.81
2023-03-01T13:11:06.657Z,58.12
2023-03-01T13:13:33.044Z,57.06
2023-03-01T13:15:59.497Z,57.28
2023-03-01T13:18:25.994Z,57.12
2023-03-01T13:20:52.386Z,57.04
2023-03-01T13:23:18.883Z,57.35
2023-03-01T13:25:45.301Z,57.84
2023-03-01T13:28:11.779Z,57.85
2023-03-01T13:30:38.488Z,58.02
2023-03-01T13:33:04.899Z,57.81
2023-03-01T13:35:32.568Z,57.45
2023-03-01T13:37:58.992Z,57.44
2023-03-01T13:40:25.419Z,56.38
2023-03-01T13:43:04.541Z,57.15
2023-03-01T13:45:31.937Z,57.29
2023-03-01T13:47:58.371Z,58.58
2023-03-01T13:50:24.839Z,58.09
2023-03-01T13:52:51.258Z,57.95
2023-03-01T13:55:20.129Z,59.32
2023-03-01T13:57:46.639Z,58.52
2023-03-01T14:00:13.040Z,58.91
2023-03-01T14:02:39.749Z,59.17
2023-03-01T14:05:06.128Z,58.54
2023-03-01T14:07:33.617Z,58.64
2023-03-01T14:09:59.999Z,57.93
2023-03-01T14:12:26.570Z,59.09
2023-03-01T14:14:53.094Z,58.86
2023-03-01T14:17:19.609Z,58.77
2023-03-01T14:19:46.094Z,58.01
2023-03-01T14:22:12.752Z,58.89
2023-03-01T14:24:39.095Z,58.39
2023-03-01T14:27:05.594Z,57.56
2023-03-01T14:29:31.990Z,58.27
2023-03-01T14:31:58.878Z,57.58
2023-03-01T14:34:25.446Z,56.54
2023-03-01T14:36:51.842Z,58.10
2023-03-01T14:39:18.234Z,58.62
2023-03-01T14:41:47.318Z,57.81
2023-03-01T14:46:40.253Z,57.66
2023-03-01T14:49:06.693Z,57.54
2023-03-01T14:51:33.092Z,57.77
2023-03-01T14:53:59.610Z,57.62
2023-03-01T14:56:25.990Z,57.26
2023-03-01T14:58:52.709Z,57.22
2023-03-01T15:03:46.942Z,58.28
2023-03-01T15:06:13.332Z,58.12
2023-03-01T15:08:39.727Z,57.90
2023-03-01T15:11:08.729Z,58.07
2023-03-01T15:13:37.639Z,58.58
2023-03-01T15:16:04.063Z,58.25
2023-03-01T15:18:30.527Z,59.92
2023-03-01T15:20:56.968Z,59.55
2023-03-01T15:23:23.895Z,59.84
2023-03-01T15:25:52.220Z,59.53
2023-03-01T15:28:18.604Z,59.56
2023-03-01T15:30:45.093Z,59.10
2023-03-01T15:33:11.579Z,58.85
2023-03-01T15:35:42.461Z,58.51
2023-03-01T15:38:11.957Z,59.15
2023-03-01T15:40:43.134Z,59.26
2023-03-01T15:43:10.159Z,59.12
2023-03-01T15:45:38.582Z,59.65
2023-03-01T15:48:08.332Z,60.61
2023-03-01T15:50:34.786Z,60.96
2023-03-01T15:53:01.290Z,62.10
2023-03-01T15:55:27.796Z,62.62
2023-03-01T15:57:54.377Z,63.38
2023-03-01T16:00:20.858Z,63.09
2023-03-01T16:02:51.923Z,63.16
2023-03-01T16:05:18.415Z,62.80
2023-03-01T16:07:45.352Z,62.96
2023-03-01T16:10:11.912Z,63.12
2023-03-01T16:12:38.358Z,63.81
2023-03-01T16:15:05.239Z,63.32
2023-03-01T16:17:34.021Z,63.22
2023-03-01T16:20:01.931Z,63.13
2023-03-01T16:25:11.154Z,63.74
2023-03-01T16:27:37.607Z,63.45
2023-03-01T16:30:04.466Z,63.48
2023-03-01T16:32:31.203Z,63.53
2023-03-01T16:34:57.845Z,63.39
2023-03-01T16:37:24.334Z,63.22
2023-03-01T16:39:50.718Z,64.13
2023-03-01T16:42:19.157Z,64.50
2023-03-01T16:44:47.823Z,64.27
2023-03-01T16:47:14.214Z,64.26
2023-03-01T16:49:40.610Z,64.55
2023-03-01T16:52:07.156Z,64.96
2023-03-01T16:54:34.947Z,65.23
2023-03-01T16:57:01.768Z,65.08
2023-03-01T16:59:28.201Z,65.37
2023-03-01T17:01:54.656Z,65.52
2023-03-01T17:04:21.049Z,65.59
2023-03-01T17:06:47.578Z,65.80
2023-03-01T17:09:14.159Z,65.74
2023-03-01T17:11:40.652Z,66.05
2023-03-01T17:14:07.119Z,65.74
2023-03-01T17:16:33.780Z,65.43
2023-03-01T17:19:02.559Z,65.50
2023-03-01T17:21:30.720Z,65.09
2023-03-01T17:23:57.600Z,65.23
2023-03-01T17:26:24.026Z,65.12
2023-03-01T17:28:50.693Z,65.63
2023-03-01T17:31:18.255Z,65.98
2023-03-01T17:33:44.605Z,66.20
2023-03-01T17:36:10.988Z,65.94
2023-03-01T17:38:39.838Z,65.69
2023-03-01T17:41:06.334Z,65.89
2023-03-01T17:43:32.699Z,66.31
2023-03-01T17:45:59.311Z,66.37
2023-03-01T17:48:26.084Z,66.55
2023-03-01T17:50:52.460Z,67.95
2023-03-01T17:53:18.948Z,67.72
2023-03-01T17:55:46.206Z,67.72
2023-03-01T17:58:12.989Z,68.36
2023-03-01T18:00:39.739Z,67.82
2023-03-01T18:03:06.655Z,67.92
2023-03-01T18:05:35.563Z,67.81
2023-03-01T18:08:02.337Z,68.63
2023-03-01T18:10:29.014Z,68.26
2023-03-01T18:12:55.374Z,69.03
2023-03-01T18:15:21.748Z,68.63
2023-03-01T18:17:48.409Z,69.15
2023-03-01T18:20:15.476Z,68.91
2023-03-01T18:22:44.392Z,68.71
2023-03-01T18:25:10.766Z,68.54
2023-03-01T18:27:37.142Z,67.90
2023-03-01T18:30:03.499Z,68.05
2023-03-01T18:32:30.348Z,68.32
2023-03-01T18:34:57.936Z,68.66
2023-03-01T18:37:24.344Z,68.00
2023-03-01T18:39:51.318Z,68.80
2023-03-01T18:42:20.207Z,69.77
2023-03-01T18:44:46.738Z,69.54
2023-03-01T18:47:16.097Z,69.64
2023-03-01T18:49:43.442Z,68.99
2023-03-01T18:52:10.044Z,69.01
2023-03-01T18:54:36.661Z,69.47
2023-03-01T18:57:04.050Z,70.36
2023-03-01T18:59:34.484Z,69.66
2023-03-01T19:02:00.891Z,69.47
2023-03-01T19:04:27.393Z,69.79
2023-03-01T19:06:54.161Z,70.08
2023-03-01T19:09:21.945Z,70.39
2023-03-01T19:11:48.358Z,70.13
2023-03-01T19:14:15.744Z,69.45
2023-03-01T19:16:43.181Z,69.35
2023-03-01T19:19:09.924Z,68.96
2023-03-01T19:21:37.413Z,68.89
2023-03-01T19:24:04.435Z,68.79
2023-03-01T19:26:31.686Z,67.87
2023-03-01T19:28:58.591Z,68.11
2023-03-01T19:31:24.988Z,67.93
2023-03-01T19:33:52.952Z,67.92
2023-03-01T19:36:21.513Z,67.71
2023-03-01T19:38:49.265Z,68.26
2023-03-01T19:41:18.202Z,67.85
2023-03-01T19:43:44.610Z,67.83
2023-03-01T19:46:12.113Z,68.45
2023-03-01T19:48:38.530Z,68.77
2023-03-01T19:51:04.926Z,68.94
2023-03-01T19:53:31.287Z,69.12
2023-03-01T19:55:57.674Z,68.61
2023-03-01T19:58:24.022Z,68.28
2023-03-01T20:00:50.417Z,68.62
2023-03-01T20:03:16.809Z,69.36
2023-03-01T20:05:47.486Z,68.75
2023-03-01T20:08:13.887Z,69.72
2023-03-01T20:10:40.256Z,69.68
2023-03-01T20:13:06.821Z,69.63
2023-03-01T20:15:33.653Z,69.70
2023-03-01T20:18:00.111Z,70.11
2023-03-01T20:20:26.560Z,70.27
2023-03-01T20:22:53.272Z,70.12
2023-03-01T20:25:19.774Z,69.93
2023-03-01T20:27:47.168Z,70.07
2023-03-01T20:30:20.840Z,69.41
2023-03-01T20:32:47.184Z,69.83
2023-03-01T20:35:13.772Z,69.86
2023-03-01T20:37:41.232Z,70.22
2023-03-01T20:40:07.631Z,69.56
2023-03-01T20:42:34.410Z,69.00
2023-03-01T20:45:01.029Z,69.60
2023-03-01T20:47:27.406Z,69.83
2023-03-01T20:49:53.878Z,68.98
2023-03-01T20:52:20.560Z,69.07
2023-03-01T20:54:46.918Z,69.08
2023-03-01T20:57:13.478Z,68.65
2023-03-01T20:59:39.934Z,68.65
2023-03-01T21:02:06.432Z,68.73
2023-03-01T21:04:33.175Z,68.85
2023-03-01T21:06:59.768Z,68.48
2023-03-01T21:09:26.205Z,68.55
2023-03-01T21:11:52.617Z,67.72
2023-03-01T21:14:19.002Z,67.42
2023-03-01T21:16:45.497Z,67.29
2023-03-01T21:19:12.919Z,66.80
2023-03-01T21:21:40.612Z,66.86
2023-03-01T21:24:09.701Z,66.59
2023-03-01T21:26:36.213Z,66.12
2023-03-01T21:29:02.884Z,66.22
2023-03-01T21:31:32.380Z,66.14
2023-03-01T21:33:59.337Z,66.22
2023-03-01T21:36:25.788Z,65.87
2023-03-01T21:38:52.399Z,65.73
2023-03-01T21:41:18.912Z,66.08
2023-03-01T21:43:45.286Z,66.37
2023-03-01T21:46:11.936Z,66.75
2023-03-01T21:48:39.990Z,66.69
2023-03-01T21:51:07.695Z,66.64
2023-03-01T21:53:36.343Z,66.82
2023-03-01T21:56:02.714Z,67.31
2023-03-01T21:58:29.196Z,67.42
2023-03-01T22:00:55.857Z,67.68
2023-03-01T22:03:22.328Z,67.44
2023-03-01T22:05:49.152Z,67.05
2023-03-01T22:08:15.788Z,67.01
2023-03-01T22:10:42.165Z,66.66
2023-03-01T22:13:08.554Z,66.68
2023-03-01T22:15:35.612Z,66.35
2023-03-01T22:18:02.069Z,66.39
2023-03-01T22:20:30.466Z,66.91
2023-03-01T22:22:56.813Z,66.44
2023-03-01T22:25:23.182Z,66.72
2023-03-01T22:27:50.004Z,66.97
2023-03-01T22:30:16.490Z,66.68
2023-03-01T22:32:42.965Z,66.74
2023-03-01T22:35:11.777Z,66.72
2023-03-01T22:37:38.460Z,65.92
2023-03-01T22:40:12.317Z,66.01
2023-03-01T22:42:38.734Z,66.05
2023-03-01T22:45:05.126Z,65.56
2023-03-01T22:47:31.837Z,65.68
2023-03-01T22:49:58.508Z,65.83
2023-03-01T22:52:24.987Z,66.01
2023-03-01T22:54:51.349Z,65.33
2023-03-01T22:57:17.900Z,65.53
2023-03-01T22:59:45.358Z,65.62
2023-03-01T23:02:12.092Z,65.63
2023-03-01T23:04:38.604Z,65.25
2023-03-01T23:07:06.112Z,65.75
2023-03-01T23:09:35.634Z,66.00
2023-03-01T23:12:02.131Z,66.14
2023-03-01T23:14:28.486Z,66.31
2023-03-01T23:16:57.389Z,66.49
2023-03-01T23:19:23.929Z,65.77
2023-03-01T23:21:50.668Z,65.50
2023-03-01T23:24:17.215Z,65.41
2023-03-01T23:26:43.777Z,65.77
2023-03-01T23:29:17.721Z,66.20
2023-03-01T23:31:44.459Z,66.42
2023-03-01T23:34:14.079Z,66.19
2023-03-01T23:36:40.593Z,65.93
2023-03-01T23:39:06.957Z,65.99
2023-03-01T23:41:34.203Z,66.10
2023-03-01T23:44:00.723Z,65.78
2023-03-01T23:46:27.472Z,65.79
2023-03-01T23:48:53.973Z,65.82
2023-03-01T23:51:20.374Z,65.91
2023-03-01T23:53:47.120Z,66.29
2023-03-01T23:56:14.744Z,66.41
2023-03-01T23:58:44.456Z,66.08
